Time;durP1;ratioP1;P1;durP2;ratioP2;P2;SDS_P1;SDS_P2;PMS_P1;PMS_P2;Temp;Humidity;BMP_temperature;BMP_pressure;BME280_temperature;BME280_humidity;BME280_pressure;Samples;Min_cycle;Max_cycle;Signal;HPM_P1;HPM_P2
2022/09/15 00:01:42;;;;;;;11.45;2.40;;;;;;;20.40;70.00;99418.09;1813843;79;21780;-79
2022/09/15 00:04:47;;;;;;;3.33;2.30;;;;;;;20.44;69.96;99421.19;1813857;79;21218;-79
2022/09/15 00:07:54;;;;;;;3.67;2.72;;;;;;;20.39;70.32;99423.36;1814210;79;21232;-79
2022/09/15 00:11:16;;;;;;;3.85;2.67;;;;;;;20.49;70.17;99420.44;1814281;79;21174;-79
2022/09/15 00:14:23;;;;;;;5.05;2.60;;;;;;;20.38;70.36;99414.75;1814220;79;21186;-79
2022/09/15 00:17:30;;;;;;;5.22;2.27;;;;;;;20.51;70.16;99419.05;1812682;79;21182;-79
2022/09/15 00:20:36;;;;;;;5.20;2.20;;;;;;;20.54;70.18;99417.70;1813544;79;21261;-79
2022/09/15 00:23:42;;;;;;;6.40;3.00;;;;;;;20.40;70.66;99421.42;1812754;79;21186;-79
2022/09/15 00:26:49;;;;;;;3.92;2.20;;;;;;;20.39;71.11;99423.92;1814151;79;21762;-79
2022/09/15 00:29:56;;;;;;;5.65;2.75;;;;;;;20.32;71.36;99418.55;1812847;79;21685;-79
2022/09/15 00:32:56;;;;;;;3.63;2.43;;;;;;;20.49;71.17;99417.10;1813486;79;21816;-79
2022/09/15 00:36:00;;;;;;;5.40;2.67;;;;;;;20.38;71.45;99422.25;1813399;79;21198;-79
2022/09/15 00:39:05;;;;;;;4.65;2.40;;;;;;;20.42;71.55;99418.69;1811813;79;21206;-79
2022/09/15 00:42:11;;;;;;;8.38;2.60;;;;;;;20.45;71.53;99426.19;1808074;79;21186;-79
2022/09/15 00:45:11;;;;;;;3.72;2.50;;;;;;;20.63;71.04;99422.52;1808225;79;21175;-79
2022/09/15 00:48:21;;;;;;;3.10;2.35;;;;;;;20.66;71.02;99423.94;1808513;79;21737;-79
2022/09/15 00:51:32;;;;;;;4.17;2.70;;;;;;;20.76;70.64;99423.19;1808977;79;22448;-78
2022/09/15 00:54:54;;;;;;;4.25;2.65;;;;;;;20.79;70.50;99422.64;1808409;79;21183;-78
2022/09/15 00:58:10;;;;;;;4.60;2.60;;;;;;;20.87;70.17;99420.77;1808181;79;21237;-78
2022/09/15 01:01:15;;;;;;;5.72;2.42;;;;;;;20.86;70.19;99426.05;1808201;79;21453;-78
2022/09/15 01:04:21;;;;;;;3.67;2.52;;;;;;;20.85;70.24;99425.22;1808235;79;21207;-78
2022/09/15 01:07:34;;;;;;;6.37;2.77;;;;;;;20.96;70.07;99421.13;1806710;79;21749;-78
2022/09/15 01:10:45;;;;;;;5.80;2.45;;;;;;;20.93;70.12;99419.70;1801843;79;21776;-78
2022/09/15 01:13:51;;;;;;;3.52;2.20;;;;;;;20.88;70.41;99415.50;1807550;79;21218;-78
2022/09/15 01:17:20;;;;;;;6.58;2.62;;;;;;;21.01;70.00;99411.44;1808105;79;21202;-78
2022/09/15 01:20:46;;;;;;;3.45;2.60;;;;;;;21.07;69.80;99405.63;1808396;79;21179;-79
2022/09/15 01:24:16;;;;;;;6.20;3.02;;;;;;;21.11;69.84;99406.77;1807257;79;21781;-79
2022/09/15 01:28:16;;;;;;;5.10;2.50;;;;;;;21.10;69.63;99402.88;1808414;79;21382;-78
2022/09/15 01:35:49;;;;;;;5.53;3.20;;;;;;;20.99;70.23;99405.31;1808266;79;21179;-78
2022/09/15 01:39:21;;;;;;;4.67;2.52;;;;;;;20.91;70.37;99387.17;1808473;79;21840;-78
2022/09/15 01:42:26;;;;;;;5.10;2.90;;;;;;;20.88;70.47;99398.81;1714496;83;21209;-78
2022/09/15 01:45:38;;;;;;;5.75;3.10;;;;;;;20.84;70.63;99390.72;1714545;83;21198;-78
2022/09/15 01:48:44;;;;;;;4.70;2.60;;;;;;;20.89;70.31;99381.06;1808311;79;21174;-78
2022/09/15 01:51:50;;;;;;;9.00;3.42;;;;;;;20.73;70.70;99380.64;1806748;79;21760;-78
2022/09/15 01:55:07;;;;;;;6.53;3.50;;;;;;;20.64;70.83;99376.95;1808441;79;21571;-78
2022/09/15 01:58:14;;;;;;;6.45;3.33;;;;;;;20.66;70.63;99372.54;1808396;79;21741;-78
2022/09/15 02:01:42;;;;;;;6.60;3.50;;;;;;;20.61;70.64;99371.11;1808579;79;21158;-77
2022/09/15 02:05:04;;;;;;;10.32;3.77;;;;;;;20.52;70.75;99370.75;1807122;79;21236;-78
2022/09/15 02:08:27;;;;;;;6.10;3.55;;;;;;;20.54;70.45;99357.42;1806952;79;21218;-78
2022/09/15 02:11:29;;;;;;;3.58;3.05;;;;;;;20.68;69.85;99364.77;1806964;79;21484;-78
2022/09/15 02:14:55;;;;;;;8.15;3.00;;;;;;;20.53;70.14;99359.92;1807236;79;21269;-78
2022/09/15 02:18:01;;;;;;;8.38;4.20;;;;;;;20.36;70.64;99354.45;1806830;79;21210;-78
2022/09/15 02:21:14;;;;;;;5.65;4.17;;;;;;;20.39;70.68;99353.09;1808486;79;21237;-78
2022/09/15 02:24:24;;;;;;;8.38;3.80;;;;;;;20.21;71.08;99363.20;1807470;79;21186;-77
2022/09/15 02:27:31;;;;;;;6.22;3.52;;;;;;;20.28;71.27;99356.86;1808322;79;21159;-78
2022/09/15 02:30:36;;;;;;;7.50;3.30;;;;;;;20.20;71.58;99359.58;1808490;79;21175;-78
2022/09/15 02:33:43;;;;;;;4.67;3.20;;;;;;;20.24;71.49;99351.02;1808021;79;21245;-78
2022/09/15 02:36:49;;;;;;;5.85;3.52;;;;;;;20.25;71.46;99355.47;1808619;79;21825;-80
2022/09/15 02:39:58;;;;;;;4.72;3.52;;;;;;;20.11;71.80;99350.05;1808380;79;21198;-78
2022/09/15 02:43:08;;;;;;;4.92;3.52;;;;;;;20.13;71.90;99358.94;1807190;79;21198;-78
2022/09/15 02:46:07;;;;;;;4.78;3.35;;;;;;;19.86;72.89;99352.02;1806827;79;21186;-78
2022/09/15 02:49:00;;;;;;;7.60;3.62;;;;;;;19.76;73.37;99347.70;1806834;79;21163;-78
2022/09/15 02:51:46;;;;;;;7.92;3.92;;;;;;;20.04;72.66;99348.88;1806770;79;21245;-78
2022/09/15 02:54:38;;;;;;;6.72;3.98;;;;;;;20.13;72.13;99345.89;1806838;79;21269;-77
2022/09/15 02:57:27;;;;;;;8.38;3.67;;;;;;;20.00;72.69;99342.17;1808346;79;22519;-78
2022/09/15 03:00:21;;;;;;;5.40;3.22;;;;;;;19.99;73.02;99342.41;1806779;79;21717;-78
2022/09/15 03:03:25;;;;;;;;;;;;;;;19.97;73.24;99348.79;1811051;79;21713;-78
2022/09/15 03:06:36;;;;;;;5.53;3.17;;;;;;;20.09;73.02;99353.09;1808271;79;20666;-78
2022/09/15 03:09:40;;;;;;;12.47;3.62;;;;;;;20.05;73.08;99347.78;1808367;79;21198;-78
2022/09/15 03:12:57;;;;;;;7.58;4.03;;;;;;;20.06;73.34;99348.05;1808381;79;21170;-78
2022/09/15 03:16:03;;;;;;;7.08;3.65;;;;;;;20.17;73.13;99344.83;1807819;79;21265;-78
2022/09/15 03:19:02;;;;;;;6.00;3.37;;;;;;;20.22;73.11;99344.04;1808529;79;21237;-78
2022/09/15 03:22:08;;;;;;;5.22;3.30;;;;;;;20.14;73.45;99339.27;1808308;79;21917;-78
2022/09/15 03:25:15;;;;;;;8.65;3.67;;;;;;;20.16;73.42;99338.44;1807581;79;21198;-78
2022/09/15 03:28:22;;;;;;;4.70;3.37;;;;;;;20.21;73.39;99343.20;1808323;79;21224;-78
2022/09/15 03:31:28;;;;;;;6.40;3.87;;;;;;;20.23;73.39;99341.02;1808295;79;21174;-78
2022/09/15 03:34:33;;;;;;;8.33;4.05;;;;;;;20.25;73.33;99342.14;1807975;79;21760;-78
2022/09/15 03:37:40;;;;;;;8.75;3.90;;;;;;;20.14;73.87;99350.37;1808220;79;21155;-78
2022/09/15 03:40:39;;;;;;;7.70;3.35;;;;;;;20.17;73.79;99356.77;1808264;79;21182;-79
2022/09/15 03:43:38;;;;;;;6.35;4.00;;;;;;;20.12;74.07;99356.72;1807384;78;21265;-78
2022/09/15 03:46:45;;;;;;;6.75;3.58;;;;;;;20.05;74.35;99352.49;1807996;79;21484;-78
2022/09/15 03:49:52;;;;;;;6.10;3.77;;;;;;;20.13;74.16;99345.06;1808167;79;21198;-79
2022/09/15 03:52:58;;;;;;;5.53;4.00;;;;;;;20.15;74.01;99340.94;1808074;79;21218;-79
2022/09/15 03:56:29;;;;;;;7.35;3.33;;;;;;;20.01;74.66;99341.06;1807280;79;21219;-79
2022/09/15 03:59:35;;;;;;;7.08;3.65;;;;;;;20.10;74.41;99339.50;1808351;79;21183;-79
2022/09/15 04:02:41;;;;;;;7.75;3.52;;;;;;;20.24;73.85;99331.58;1807051;79;21159;-79
2022/09/15 04:05:47;;;;;;;6.97;4.17;;;;;;;20.33;73.52;99331.39;1807318;79;21198;-79
2022/09/15 04:08:56;;;;;;;6.78;4.00;;;;;;;20.12;74.07;99326.18;1807800;79;21210;-77
2022/09/15 04:12:02;;;;;;;4.60;3.50;;;;;;;20.25;74.26;99329.09;1808249;79;21174;-78
2022/09/15 04:15:10;;;;;;;8.08;4.22;;;;;;;20.26;74.38;99320.20;1808071;79;21214;-78
2022/09/15 04:18:17;;;;;;;6.12;3.20;;;;;;;20.17;75.03;99329.56;1808355;79;21182;-78
2022/09/15 04:21:26;;;;;;;7.50;3.62;;;;;;;20.15;75.59;99329.83;1808419;79;21756;-78
2022/09/15 04:24:31;;;;;;;6.97;3.40;;;;;;;20.40;74.80;99325.05;1807711;79;21242;-77
2022/09/15 04:27:38;;;;;;;6.58;3.30;;;;;;;20.53;74.27;99325.20;1806963;79;21179;-78
2022/09/15 04:30:37;;;;;;;5.35;3.90;;;;;;;20.55;74.35;99320.20;1808193;79;21182;-78
2022/09/15 04:33:31;;;;;;;10.43;3.77;;;;;;;20.56;74.34;99319.64;1783712;79;21233;-79
2022/09/15 04:36:36;;;;;;;6.33;4.05;;;;;;;20.53;74.52;99308.53;1756169;81;21230;-80
2022/09/15 04:39:35;;;;;;;5.60;3.60;;;;;;;20.91;73.40;99307.97;1756197;81;21575;-80
2022/09/15 04:42:42;;;;;;;8.00;3.40;;;;;;;21.07;72.82;99301.94;1763782;78;21163;-80
2022/09/15 04:45:49;;;;;;;4.97;3.25;;;;;;;21.22;72.22;99296.48;1811250;79;21222;-78
2022/09/15 04:48:56;;;;;;;7.10;3.40;;;;;;;21.37;71.77;99294.34;1811491;79;21749;-78
2022/09/15 04:52:01;;;;;;;5.95;3.15;;;;;;;21.16;72.70;99295.59;1812147;79;21182;-78
2022/09/15 04:55:07;;;;;;;5.60;2.92;;;;;;;21.39;72.46;99293.50;1810820;79;22562;-78
2022/09/15 04:58:13;;;;;;;10.55;3.17;;;;;;;21.60;72.12;99295.83;1812020;79;21232;-78
2022/09/15 05:01:23;;;;;;;5.65;3.25;;;;;;;21.87;71.69;99288.64;1811873;79;21170;-79
2022/09/15 05:04:29;;;;;;;7.03;2.95;;;;;;;22.03;71.26;99293.14;1809906;79;21194;-78
2022/09/15 05:07:36;;;;;;;6.45;3.08;;;;;;;22.29;70.50;99297.36;1794675;78;21169;-78
2022/09/15 05:10:44;;;;;;;4.92;2.72;;;;;;;22.42;70.26;99296.25;1798612;78;21770;-78
2022/09/15 05:13:49;;;;;;;5.90;2.45;;;;;;;22.47;70.19;99295.98;1801061;78;21190;-79
2022/09/15 05:16:58;;;;;;;5.35;2.62;;;;;;;22.44;70.01;99307.97;1803117;78;21193;-78
2022/09/15 05:20:07;;;;;;;9.03;3.00;;;;;;;22.57;70.26;99310.73;1801899;78;21335;-79
2022/09/15 05:23:12;;;;;;;10.32;3.47;;;;;;;22.61;70.34;99317.98;1802662;78;21185;-80
2022/09/15 05:26:24;;;;;;;7.80;2.10;;;;;;;23.06;69.16;99312.95;1795011;78;21271;-79
2022/09/15 05:29:34;;;;;;;14.70;2.33;;;;;;;23.34;68.68;99311.47;1754236;79;21707;-78
2022/09/15 05:32:44;;;;;;;5.72;2.05;;;;;;;23.75;67.68;99312.70;1743363;81;21162;-83
2022/09/15 05:36:04;;;;;;;10.48;2.52;;;;;;;23.85;66.97;99306.22;1750965;80;21145;-82
2022/09/15 05:39:19;;;;;;;5.50;1.98;;;;;;;24.14;65.87;99308.58;1743990;80;21225;-76
2022/09/15 05:42:30;;;;;;;7.80;2.50;;;;;;;24.26;65.23;99301.20;1750417;80;21212;-82
2022/09/15 05:45:36;;;;;;;8.60;2.60;;;;;;;24.63;63.50;99313.80;1752440;80;21714;-78
2022/09/15 05:48:41;;;;;;;4.33;1.90;;;;;;;24.46;63.89;99317.01;1666304;84;21773;-77
2022/09/15 05:51:47;;;;;;;13.15;2.40;;;;;;;24.20;63.93;99319.14;1747853;81;21213;-77
2022/09/15 05:54:46;;;;;;;6.08;2.17;;;;;;;24.28;63.75;99316.27;1736742;81;21173;-82
2022/09/15 05:57:54;;;;;;;9.30;2.65;;;;;;;24.20;63.75;99312.16;1704091;83;21593;-78
2022/09/15 06:01:01;;;;;;;7.92;2.30;;;;;;;23.94;65.12;99314.27;1716642;82;21200;-77
2022/09/15 06:04:08;;;;;;;3.65;1.85;;;;;;;24.28;64.73;99316.27;1723060;82;21672;-77
2022/09/15 06:07:13;;;;;;;6.25;2.20;;;;;;;24.43;64.53;99307.27;1687201;83;21173;-82
2022/09/15 06:10:19;;;;;;;8.28;2.37;;;;;;;24.44;64.40;99306.70;1685623;83;21138;-82
2022/09/15 06:13:27;;;;;;;7.97;2.70;;;;;;;24.79;63.21;99310.30;1724969;82;21163;-82
2022/09/15 06:16:39;;;;;;;6.95;2.52;;;;;;;25.04;62.20;99308.66;1722985;82;21180;-82
2022/09/15 06:19:55;;;;;;;7.45;2.67;;;;;;;25.34;61.27;99313.66;1680842;85;21214;-78
2022/09/15 06:23:04;;;;;;;7.15;2.17;;;;;;;25.02;62.25;99307.27;1721245;80;21156;-82
2022/09/15 06:26:16;;;;;;;10.68;2.58;;;;;;;25.13;62.01;99301.89;1712143;82;21174;-82
2022/09/15 06:29:22;;;;;;;10.05;2.55;;;;;;;25.29;61.78;99309.53;1719760;82;21670;-83
2022/09/15 06:32:28;;;;;;;5.83;2.47;;;;;;;25.63;61.65;99300.41;1721189;83;21505;-82
2022/09/15 06:35:34;;;;;;;6.85;2.80;;;;;;;25.83;60.65;99293.76;1723219;81;21187;-80
2022/09/15 06:38:34;;;;;;;8.53;3.08;;;;;;;26.11;60.31;99297.55;1752454;81;21160;-78
2022/09/15 06:41:41;;;;;;;12.18;2.83;;;;;;;25.97;60.57;99286.27;1714597;81;21259;-83
2022/09/15 06:44:53;;;;;;;8.55;2.70;;;;;;;26.09;59.78;99292.80;1705184;81;21247;-82
2022/09/15 06:48:01;;;;;;;10.78;2.75;;;;;;;26.38;59.66;99293.19;1711316;81;21263;-82
2022/09/15 06:51:08;;;;;;;9.60;3.08;;;;;;;26.50;59.64;99290.79;1703425;83;21819;-81
2022/09/15 06:54:14;;;;;;;10.38;2.67;;;;;;;26.71;57.98;99290.69;1718152;81;21850;-81
2022/09/15 06:57:20;;;;;;;8.85;2.98;;;;;;;26.91;57.34;99290.91;1720559;81;21678;-82
2022/09/15 07:00:26;;;;;;;6.78;2.37;;;;;;;26.82;58.07;99295.56;1747796;81;21188;-81
2022/09/15 07:03:34;;;;;;;5.78;2.10;;;;;;;26.86;56.65;99292.95;1725137;81;21196;-78
2022/09/15 07:06:39;;;;;;;9.35;2.62;;;;;;;26.91;57.25;99297.06;1730200;81;21156;-78
2022/09/15 07:09:45;;;;;;;13.08;3.17;;;;;;;27.10;57.19;99296.48;1715947;81;21551;-79
2022/09/15 07:12:50;;;;;;;14.60;2.83;;;;;;;27.33;56.85;99306.39;1716652;81;21772;-82
2022/09/15 07:16:02;;;;;;;6.37;2.55;;;;;;;27.56;56.22;99302.55;1727182;82;21454;-80
2022/09/15 07:19:07;;;;;;;11.80;2.92;;;;;;;28.03;54.76;99297.03;1724489;81;21207;-82
2022/09/15 07:22:12;;;;;;;13.90;2.58;;;;;;;27.99;54.37;99303.02;1721624;81;21225;-79
2022/09/15 07:25:17;;;;;;;10.20;2.75;;;;;;;28.01;53.59;99304.13;1688761;83;21203;-77
2022/09/15 07:28:28;;;;;;;7.90;3.00;;;;;;;28.04;53.58;99309.09;1658807;85;21738;-77
2022/09/15 07:31:36;;;;;;;7.65;2.50;;;;;;;28.94;51.55;99308.60;1674196;84;21232;-78
2022/09/15 07:34:43;;;;;;;15.08;3.30;;;;;;;29.39;49.06;99309.91;1743261;81;21785;-82
2022/09/15 07:37:50;;;;;;;10.72;2.85;;;;;;;29.16;50.06;99304.09;1738827;81;21789;-78
2022/09/15 07:40:58;;;;;;;7.47;2.95;;;;;;;28.69;51.29;99296.59;1737481;80;21157;-80
2022/09/15 07:44:05;;;;;;;10.05;2.20;;;;;;;28.77;50.46;99293.84;1739879;82;21676;-77
2022/09/15 07:47:11;;;;;;;10.82;2.10;;;;;;;28.56;49.94;99290.45;1736953;80;21251;-77
2022/09/15 07:50:17;;;;;;;5.60;1.87;;;;;;;28.45;49.59;99298.33;1737133;81;21236;-77
2022/09/15 07:53:22;;;;;;;7.85;1.85;;;;;;;28.24;49.53;99289.54;1687222;83;21193;-82
2022/09/15 07:56:29;;;;;;;4.53;2.05;;;;;;;28.10;50.26;99275.53;1702336;82;21801;-81
2022/09/15 07:59:35;;;;;;;8.18;2.42;;;;;;;28.07;50.57;99282.35;1739893;81;21597;-81
2022/09/15 08:02:41;;;;;;;6.95;2.15;;;;;;;27.93;51.76;99278.17;1737815;81;21469;-80
2022/09/15 08:05:50;;;;;;;9.85;2.47;;;;;;;28.08;51.58;99275.00;1745713;80;21157;-77
2022/09/15 08:08:56;;;;;;;5.15;2.33;;;;;;;27.87;52.35;99273.83;1743293;81;21264;-79
2022/09/15 08:12:01;;;;;;;13.58;3.00;;;;;;;28.06;51.86;99269.45;1705234;82;21191;-78
2022/09/15 08:15:08;;;;;;;7.87;2.65;;;;;;;28.11;51.96;99258.92;1717230;82;21760;-78
2022/09/15 08:18:15;;;;;;;6.90;2.60;;;;;;;28.09;52.34;99263.18;1701884;83;21250;-78
2022/09/15 08:21:22;;;;;;;8.23;2.37;;;;;;;28.13;52.68;99254.37;1709137;83;21192;-78
2022/09/15 08:24:30;;;;;;;7.35;2.70;;;;;;;28.35;51.80;99256.41;1701896;82;21225;-82
2022/09/15 08:27:36;;;;;;;10.03;2.45;;;;;;;28.17;52.23;99256.23;1707990;82;21827;-84
2022/09/15 08:30:41;;;;;;;10.90;2.98;;;;;;;27.84;53.10;99257.02;1700250;82;21179;-83
2022/09/15 08:33:48;;;;;;;11.45;2.45;;;;;;;27.76;53.34;99255.80;1715357;81;21471;-78
2022/09/15 08:36:59;;;;;;;8.98;2.52;;;;;;;27.67;53.45;99249.81;1717995;81;21146;-79
2022/09/15 08:40:05;;;;;;;17.12;3.42;;;;;;;27.64;53.06;99247.63;1715969;81;21611;-79
2022/09/15 08:43:21;;;;;;;10.58;2.30;;;;;;;27.46;53.41;99239.58;1716972;81;21166;-82
2022/09/15 08:46:32;;;;;;;10.10;2.75;;;;;;;27.43;53.60;99243.00;1690175;83;21244;-81
2022/09/15 08:49:58;;;;;;;10.72;4.28;;;;;;;27.28;54.23;99228.72;1727262;81;21828;-78
2022/09/15 08:53:32;;;;;;;9.08;2.65;;;;;;;27.21;54.72;99222.14;1749849;81;21168;-78
2022/09/15 08:56:37;;;;;;;9.00;3.20;;;;;;;26.96;55.38;99226.81;1711879;82;21224;-78
2022/09/15 08:59:43;;;;;;;5.12;2.33;;;;;;;27.03;55.02;99224.45;1686639;83;21235;-82
2022/09/15 09:03:04;;;;;;;11.25;2.72;;;;;;;26.70;55.88;99227.89;1716615;81;21151;-84
2022/09/15 09:06:18;;;;;;;10.45;3.27;;;;;;;26.67;56.57;99220.09;1719455;81;21163;-77
2022/09/15 09:09:56;;;;;;;8.85;2.58;;;;;;;26.45;57.26;99219.39;1719287;81;21245;-78
2022/09/15 09:13:47;;;;;;;9.35;2.45;;;;;;;26.38;57.14;99204.89;1727100;81;21163;-78
2022/09/15 09:17:26;;;;;;;8.28;2.80;;;;;;;26.33;57.39;99207.78;1691593;83;21204;-78
2022/09/15 09:20:42;;;;;;;9.30;3.13;;;;;;;26.32;57.95;99199.13;1716076;83;21172;-81
2022/09/15 09:23:58;;;;;;;9.43;3.20;;;;;;;26.36;58.28;99195.97;1689181;83;21802;-84
2022/09/15 09:27:04;;;;;;;10.00;3.10;;;;;;;26.35;57.95;99195.68;1709743;81;21161;-83
2022/09/15 09:30:30;;;;;;;13.05;3.12;;;;;;;26.02;58.88;99187.84;1693165;83;21169;-78
2022/09/15 09:33:52;;;;;;;8.75;2.87;;;;;;;26.15;58.51;99198.27;1680688;84;21262;-79
2022/09/15 09:37:08;;;;;;;5.47;2.58;;;;;;;26.23;58.31;99190.00;1709089;82;21758;-83
2022/09/15 09:40:16;;;;;;;7.62;2.42;;;;;;;26.08;59.02;99179.06;1660557;84;21163;-83
2022/09/15 09:43:22;;;;;;;7.50;2.92;;;;;;;25.85;59.23;99170.20;1744431;80;21199;-81
2022/09/15 09:46:28;;;;;;;10.35;3.55;;;;;;;25.86;58.57;99163.46;1729050;80;21485;-82
2022/09/15 09:49:43;;;;;;;10.40;3.05;;;;;;;25.85;58.62;99157.03;1742361;80;21229;-83
2022/09/15 09:52:52;;;;;;;9.10;2.92;;;;;;;25.69;59.29;99157.82;1721132;82;21826;-79
2022/09/15 09:55:57;;;;;;;9.60;2.90;;;;;;;25.87;59.17;99160.92;1704468;82;21169;-79
2022/09/15 09:59:03;;;;;;;8.15;3.42;;;;;;;25.99;58.91;99153.71;1711302;82;21210;-77
2022/09/15 10:02:30;;;;;;;8.10;2.85;;;;;;;26.04;58.83;99151.39;1718774;82;21189;-78
2022/09/15 10:05:35;;;;;;;7.80;2.30;;;;;;;26.02;58.84;99152.82;1714315;82;21811;-78
2022/09/15 10:08:40;;;;;;;6.75;2.75;;;;;;;26.06;58.88;99146.87;1689964;84;22160;-78
2022/09/15 10:12:06;;;;;;;6.72;3.08;;;;;;;25.88;59.70;99148.60;1690678;83;21244;-78
2022/09/15 10:15:16;;;;;;;10.88;3.02;;;;;;;26.03;59.50;99141.33;1723255;82;21654;-78
2022/09/15 10:18:37;;;;;;;10.03;2.83;;;;;;;26.48;58.91;99144.45;1745703;81;21170;-78
2022/09/15 10:21:30;;;;;;;8.93;3.92;;;;;;;26.57;57.99;99139.80;1684604;83;21173;-78
2022/09/15 10:24:42;;;;;;;11.78;2.98;;;;;;;26.62;57.29;99143.07;1711414;82;21817;-77
2022/09/15 10:27:49;;;;;;;8.88;2.77;;;;;;;26.76;56.56;99143.91;1714998;82;21222;-77
2022/09/15 10:31:14;;;;;;;12.58;2.72;;;;;;;26.75;56.49;99137.47;1713040;82;21169;-77
2022/09/15 10:34:35;;;;;;;9.43;3.33;;;;;;;26.56;56.86;99133.93;1669660;84;21903;-77
2022/09/15 10:37:58;;;;;;;11.45;2.85;;;;;;;26.45;56.89;99130.50;1663727;84;21865;-79
2022/09/15 10:41:08;;;;;;;9.40;2.90;;;;;;;26.53;56.49;99133.14;1680673;83;21189;-78
2022/09/15 10:44:42;;;;;;;7.90;2.75;;;;;;;26.32;57.01;99129.05;1687515;83;21201;-77
2022/09/15 10:47:56;;;;;;;8.70;2.87;;;;;;;26.25;56.98;99121.88;1666534;83;21734;-77
2022/09/15 10:51:16;;;;;;;6.28;2.92;;;;;;;26.28;57.04;99116.79;1667596;84;21737;-78
2022/09/15 10:54:45;;;;;;;7.75;3.17;;;;;;;26.16;57.18;99105.52;1697026;83;21194;-77
2022/09/15 10:58:13;;;;;;;12.35;2.52;;;;;;;26.06;58.03;99105.67;1685109;83;21179;-81
2022/09/15 11:01:37;;;;;;;6.53;2.52;;;;;;;26.31;57.60;99098.79;1683858;83;21236;-83
2022/09/15 11:05:09;;;;;;;4.80;2.17;;;;;;;26.32;57.65;99096.81;1712728;83;21204;-83
2022/09/15 11:08:42;;;;;;;8.98;3.10;;;;;;;26.44;57.28;99095.75;1684073;85;21197;-78
2022/09/15 11:12:05;;;;;;;11.95;2.62;;;;;;;26.54;57.03;99087.70;1693334;83;21565;-77
2022/09/15 11:15:42;;;;;;;10.88;2.72;;;;;;;26.71;56.46;99069.11;1672174;83;21273;-77
2022/09/15 11:19:21;;;;;;;6.85;2.80;;;;;;;26.62;57.48;99069.59;1721710;81;21180;-77
2022/09/15 11:22:40;;;;;;;11.12;2.45;;;;;;;26.70;57.12;99065.23;1674344;83;21390;-77
2022/09/15 11:25:55;;;;;;;7.67;2.75;;;;;;;26.95;56.01;99060.45;1684522;83;21172;-77
2022/09/15 11:29:07;;;;;;;10.00;2.75;;;;;;;26.57;57.00;99051.47;1670681;83;21238;-77
2022/09/15 11:32:19;;;;;;;8.20;3.10;;;;;;;26.88;56.41;99051.66;1686748;83;21902;-77
2022/09/15 11:35:59;;;;;;;9.10;2.98;;;;;;;27.12;55.49;99044.41;1698895;82;21817;-77
2022/09/15 11:39:28;;;;;;;14.93;2.90;;;;;;;27.15;55.06;99035.36;1708162;82;21235;-78
2022/09/15 11:42:45;;;;;;;7.55;3.00;;;;;;;27.10;54.94;99041.09;1713308;82;21767;-77
2022/09/15 11:45:55;;;;;;;8.28;2.90;;;;;;;27.04;54.97;99035.87;1703192;82;21191;-77
2022/09/15 11:49:12;;;;;;;10.65;3.00;;;;;;;27.19;54.69;99036.36;1702020;82;21192;-77
2022/09/15 11:52:41;;;;;;;11.43;2.65;;;;;;;27.41;53.54;99027.14;1718648;82;21201;-77
2022/09/15 11:56:21;;;;;;;13.80;2.93;;;;;;;27.35;52.57;99033.20;1696195;82;21563;-77
2022/09/15 11:59:38;;;;;;;6.35;2.37;;;;;;;27.67;51.02;99022.30;1685249;85;21208;-77
2022/09/15 12:03:14;;;;;;;8.80;2.40;;;;;;;27.63;50.05;99019.30;1686743;84;21228;-78
2022/09/15 12:06:24;;;;;;;12.23;3.22;;;;;;;27.64;49.51;99018.14;1711374;82;21172;-78
2022/09/15 12:09:31;;;;;;;10.08;2.33;;;;;;;27.57;49.79;99020.58;1671587;85;21235;-78
2022/09/15 12:12:37;;;;;;;11.93;2.72;;;;;;;27.39;49.89;99018.80;1711501;82;21169;-76
2022/09/15 12:15:43;;;;;;;11.03;2.77;;;;;;;27.42;49.96;99018.96;1716651;82;21215;-84
2022/09/15 12:19:11;;;;;;;10.25;2.50;;;;;;;27.46;50.04;99015.78;1693044;83;21714;-84
2022/09/15 12:22:52;;;;;;;12.78;2.90;;;;;;;27.28;50.73;99018.77;1695255;82;21153;-83
2022/09/15 12:26:27;;;;;;;11.08;2.92;;;;;;;27.15;50.98;99013.48;1705672;82;21184;-83
2022/09/15 12:29:38;;;;;;;10.35;2.45;;;;;;;27.07;51.10;99016.43;1700778;82;21775;-84
2022/09/15 12:32:46;;;;;;;8.20;2.30;;;;;;;26.96;51.58;99017.80;1689866;83;21124;-83
2022/09/15 12:35:51;;;;;;;13.10;2.70;;;;;;;26.86;51.78;99016.05;1704039;82;21187;-84
2022/09/15 12:38:57;;;;;;;10.88;2.33;;;;;;;26.86;52.02;99006.23;1656391;86;21239;-83
2022/09/15 12:42:17;;;;;;;13.38;2.70;;;;;;;26.74;52.53;99005.39;1752476;82;21731;-84
2022/09/15 12:45:33;;;;;;;9.35;3.02;;;;;;;26.69;53.06;99001.30;1720600;83;21220;-83
2022/09/15 12:48:40;;;;;;;13.45;3.98;;;;;;;26.60;53.43;99004.59;1721776;83;21299;-83
2022/09/15 12:51:46;;;;;;;22.80;4.83;;;;;;;26.67;53.58;99005.55;1721070;83;21706;-84
2022/09/15 12:54:54;;;;;;;14.25;5.30;;;;;;;26.72;53.38;99000.69;1697476;83;21769;-84
2022/09/15 12:58:06;;;;;;;16.50;5.70;;;;;;;26.78;53.17;99004.77;1721097;83;21169;-83
2022/09/15 13:01:34;;;;;;;15.55;5.33;;;;;;;26.76;53.24;98998.88;1695613;84;21517;-83
2022/09/15 13:04:59;;;;;;;17.10;4.42;;;;;;;26.65;53.58;98999.44;1732237;83;21182;-83
2022/09/15 13:08:04;;;;;;;11.48;4.62;;;;;;;26.67;53.60;98992.36;1732546;83;21802;-83
2022/09/15 13:11:39;;;;;;;11.18;4.75;;;;;;;27.05;52.79;98986.44;1732879;83;21169;-82
2022/09/15 13:14:48;;;;;;;14.63;5.00;;;;;;;27.11;52.28;98981.59;1732939;83;21213;-84
2022/09/15 13:17:53;;;;;;;18.60;5.10;;;;;;;27.08;52.35;98984.44;1724251;82;21180;-83
2022/09/15 13:21:09;;;;;;;15.15;5.05;;;;;;;27.05;52.47;98982.23;1716205;83;21256;-83
2022/09/15 13:24:17;;;;;;;15.85;4.37;;;;;;;27.11;52.39;98976.80;1683004;85;21254;-83
2022/09/15 13:27:32;;;;;;;10.48;4.20;;;;;;;26.96;52.79;98975.71;1670122;85;21221;-84
2022/09/15 13:30:44;;;;;;;11.75;3.72;;;;;;;27.07;52.96;98969.30;1692600;85;21256;-84
2022/09/15 13:34:18;;;;;;;10.93;3.42;;;;;;;26.53;53.98;98964.91;1693183;85;21260;-84
2022/09/15 13:37:45;;;;;;;16.87;3.60;;;;;;;26.38;54.67;98962.42;1683989;83;21220;-83
2022/09/15 13:41:33;;;;;;;8.33;3.27;;;;;;;26.20;55.10;98960.81;1685048;85;21753;-84
2022/09/15 13:45:17;;;;;;;10.75;3.40;;;;;;;26.11;55.39;98963.26;1693237;85;21201;-83
2022/09/15 13:48:53;;;;;;;11.95;2.83;;;;;;;25.96;56.11;98957.39;1693346;85;21196;-83
2022/09/15 13:52:09;;;;;;;9.85;3.50;;;;;;;26.13;55.78;98951.19;1693489;85;21184;-83
2022/09/15 13:55:30;;;;;;;7.20;2.75;;;;;;;26.13;55.92;98942.20;1675179;85;21256;-84
2022/09/15 13:58:37;;;;;;;9.90;2.95;;;;;;;26.27;55.65;98937.17;1693353;85;21220;-84
2022/09/15 14:01:44;;;;;;;15.80;3.27;;;;;;;26.34;55.34;98936.98;1685292;85;21180;-83
2022/09/15 14:04:50;;;;;;;12.70;3.05;;;;;;;26.23;55.71;98934.98;1685060;85;21201;-83
2022/09/15 14:08:15;;;;;;;14.35;3.12;;;;;;;26.14;56.11;98922.02;1670724;85;21738;-83
2022/09/15 14:11:23;;;;;;;18.57;3.55;;;;;;;26.06;56.49;98922.16;1693222;85;21175;-83
2022/09/15 14:14:59;;;;;;;8.78;2.98;;;;;;;26.18;56.12;98923.88;1685068;85;21787;-83
2022/09/15 14:18:05;;;;;;;6.67;3.22;;;;;;;25.82;57.08;98926.58;1685786;85;21730;-84
2022/09/15 14:21:12;;;;;;;16.23;4.22;;;;;;;26.05;56.32;98919.69;1692468;85;21224;-84
2022/09/15 14:24:28;;;;;;;9.23;3.60;;;;;;;25.80;57.36;98916.84;1684869;85;21236;-84
2022/09/15 14:27:36;;;;;;;15.32;4.55;;;;;;;26.03;56.79;98920.01;1693192;85;21231;-84
2022/09/15 14:30:41;;;;;;;21.42;5.25;;;;;;;26.01;56.94;98915.27;1693322;85;21241;-84
2022/09/15 14:33:48;;;;;;;11.70;4.62;;;;;;;26.14;56.67;98924.24;1693231;85;21770;-83
2022/09/15 14:37:03;;;;;;;10.15;4.33;;;;;;;26.17;56.70;98922.23;1685663;83;21252;-84
2022/09/15 14:40:11;;;;;;;16.93;4.35;;;;;;;26.01;57.37;98915.27;1684972;85;21216;-83
2022/09/15 14:43:39;;;;;;;13.93;4.37;;;;;;;26.02;57.64;98916.95;1669451;85;21220;-84
2022/09/15 14:46:45;;;;;;;17.65;4.25;;;;;;;26.07;57.51;98914.05;1693366;85;21789;-83
2022/09/15 14:49:52;;;;;;;12.43;4.67;;;;;;;25.83;58.48;98905.86;1691972;85;21251;-85
2022/09/15 14:53:12;;;;;;;14.73;4.80;;;;;;;25.85;58.62;98904.13;1684527;83;21177;-83
2022/09/15 14:56:28;;;;;;;15.55;4.58;;;;;;;25.92;58.57;98907.33;1685996;85;21189;-83
2022/09/15 14:59:45;;;;;;;12.23;4.80;;;;;;;25.89;58.73;98907.98;1692811;85;21223;-84
2022/09/15 15:03:06;;;;;;;16.45;4.65;;;;;;;25.76;59.45;98911.59;1693120;85;21173;-83
2022/09/15 15:06:36;;;;;;;17.15;5.03;;;;;;;25.73;59.42;98915.23;1693124;85;21228;-84